Time;durP1;ratioP1;P1;durP2;ratioP2;P2;SDS_P1;SDS_P2;PMS_P1;PMS_P2;Temp;Humidity;BMP_temperature;BMP_pressure;BME280_temperature;BME280_humidity;BME280_pressure;Samples;Min_cycle;Max_cycle;Signal;HPM_P1;HPM_P2
2023/12/03 00:01:49;;;;;;;5.23;5.00;;;;;;;-4.07;100.00;99011.13;4138583;28;20209;-48
2023/12/03 00:03:51;;;;;;;5.30;5.10;;;;;;;-4.10;100.00;99019.44;4142803;28;20216;-48
2023/12/03 00:05:53;;;;;;;6.20;5.70;;;;;;;-4.12;100.00;99005.38;4157928;28;20293;-48
2023/12/03 00:08:00;;;;;;;6.90;6.40;;;;;;;-4.19;100.00;99014.97;4143206;28;20247;-48
2023/12/03 00:10:02;;;;;;;6.67;6.17;;;;;;;-4.26;100.00;99016.53;4138407;28;20209;-48
2023/12/03 00:12:05;;;;;;;6.37;5.97;;;;;;;-4.37;100.00;99016.72;4140659;28;20210;-48
2023/12/03 00:14:07;;;;;;;6.23;5.83;;;;;;;-4.43;100.00;99015.47;4150195;28;20232;-49
2023/12/03 00:16:09;;;;;;;5.00;4.70;;;;;;;-4.38;100.00;99017.72;4145402;28;20645;-49
2023/12/03 00:18:11;;;;;;;6.10;5.63;;;;;;;-4.33;100.00;99007.44;4124574;28;20218;-48
2023/12/03 00:20:12;;;;;;;6.00;5.70;;;;;;;-4.44;100.00;99015.59;4159754;28;20826;-49
2023/12/03 00:22:14;;;;;;;4.80;4.40;;;;;;;-4.43;100.00;99014.63;4143815;28;20213;-48
2023/12/03 00:24:19;;;;;;;12.67;6.93;;;;;;;-4.46;100.00;99009.59;4123263;28;20794;-48
2023/12/03 00:26:20;;;;;;;5.27;4.77;;;;;;;-4.51;100.00;99012.69;4135460;28;20702;-48
2023/12/03 00:28:22;;;;;;;5.53;5.20;;;;;;;-4.55;100.00;99011.28;4151028;28;20209;-48
2023/12/03 00:30:24;;;;;;;6.57;6.07;;;;;;;-4.52;100.00;99012.81;4139075;28;20202;-50
2023/12/03 00:32:26;;;;;;;8.20;7.67;;;;;;;-4.53;100.00;99008.47;4152139;28;20613;-48
2023/12/03 00:34:28;;;;;;;6.73;6.33;;;;;;;-4.51;100.00;99004.69;4142619;28;20217;-48
2023/12/03 00:36:29;;;;;;;7.30;6.80;;;;;;;-4.45;100.00;99016.59;4125223;28;20257;-48
2023/12/03 00:38:31;;;;;;;6.73;6.23;;;;;;;-4.54;100.00;99006.78;4143862;28;20658;-48
2023/12/03 00:40:33;;;;;;;5.40;5.00;;;;;;;-4.52;100.00;99010.16;4143422;28;20654;-48
2023/12/03 00:42:35;;;;;;;6.17;5.70;;;;;;;-4.62;100.00;99009.31;4142640;28;20213;-49
2023/12/03 00:44:36;;;;;;;8.70;8.17;;;;;;;-4.63;100.00;99012.97;4142027;28;20295;-49
2023/12/03 00:46:38;;;;;;;6.10;5.77;;;;;;;-4.61;100.00;99008.34;4140073;28;20289;-50
2023/12/03 00:48:40;;;;;;;4.57;4.37;;;;;;;-4.63;100.00;99008.50;4140788;28;20663;-50
2023/12/03 00:50:42;;;;;;;6.93;6.50;;;;;;;-4.68;100.00;99015.25;4147370;28;20909;-49
2023/12/03 00:52:44;;;;;;;6.93;6.50;;;;;;;-4.68;100.00;99017.91;4143131;28;20326;-49
2023/12/03 00:54:46;;;;;;;5.80;5.40;;;;;;;-4.71;100.00;99012.84;4138896;28;20259;-48
2023/12/03 00:56:47;;;;;;;8.87;8.27;;;;;;;-4.74;100.00;99010.47;4127609;28;20264;-48
2023/12/03 00:58:49;;;;;;;9.47;8.93;;;;;;;-4.70;100.00;99011.88;4148447;28;20255;-48
2023/12/03 01:00:51;;;;;;;6.53;6.03;;;;;;;-4.68;100.00;99028.59;4142480;28;20218;-49
2023/12/03 01:02:53;;;;;;;10.13;9.37;;;;;;;-4.76;100.00;99023.97;4124746;28;20606;-51
2023/12/03 01:04:54;;;;;;;6.07;5.70;;;;;;;-4.77;100.00;99018.75;4144338;28;20860;-48
2023/12/03 01:06:56;;;;;;;4.97;4.77;;;;;;;-4.76;100.00;99029.31;4127544;28;20349;-49
2023/12/03 01:08:58;;;;;;;7.10;6.53;;;;;;;-4.75;100.00;99035.47;4142459;28;20209;-48
2023/12/03 01:11:03;;;;;;;9.63;7.07;;;;;;;-4.79;100.00;99023.41;4144080;28;20212;-48
2023/12/03 01:13:05;;;;;;;5.20;4.93;;;;;;;-4.78;100.00;99043.75;4132478;28;20209;-49
2023/12/03 01:15:08;;;;;;;5.93;5.53;;;;;;;-4.81;100.00;99036.06;4139938;28;20229;-49
2023/12/03 01:17:09;;;;;;;6.20;5.60;;;;;;;-4.80;100.00;99037.75;4142573;28;20212;-49
2023/12/03 01:19:11;;;;;;;5.40;5.10;;;;;;;-4.81;100.00;99036.06;4143018;28;20212;-49
2023/12/03 01:21:13;;;;;;;6.77;6.17;;;;;;;-4.80;100.00;99048.41;4143829;28;20205;-49
2023/12/03 01:23:15;;;;;;;6.90;6.60;;;;;;;-4.83;100.00;99043.34;4142725;28;20328;-49
2023/12/03 01:25:16;;;;;;;6.47;5.97;;;;;;;-4.80;100.00;99045.75;4143817;28;20229;-48
2023/12/03 01:27:18;;;;;;;7.67;7.23;;;;;;;-4.70;100.00;99049.22;4124406;28;20679;-49
2023/12/03 01:29:20;;;;;;;7.43;7.03;;;;;;;-4.72;100.00;99051.22;4150319;28;20694;-50
2023/12/03 01:31:21;;;;;;;5.93;5.57;;;;;;;-4.77;100.00;99053.44;4142106;28;20652;-49
2023/12/03 01:33:24;;;;;;;7.67;7.00;;;;;;;-4.82;100.00;99056.53;4149582;28;20311;-50
2023/12/03 01:35:26;;;;;;;10.03;7.03;;;;;;;-4.81;100.00;99058.22;4137311;28;20252;-48
2023/12/03 01:37:27;;;;;;;6.23;5.63;;;;;;;-4.82;100.00;99069.03;4137707;28;20217;-48
2023/12/03 01:39:29;;;;;;;6.53;6.03;;;;;;;-4.89;100.00;99067.91;4142499;28;20215;-48
2023/12/03 01:41:31;;;;;;;6.17;5.67;;;;;;;-4.92;100.00;99070.88;4142110;28;20205;-48
2023/12/03 01:43:52;;;;;;;6.20;5.70;;;;;;;-4.92;100.00;99071.72;4141155;28;20197;-50
2023/12/03 01:45:53;;;;;;;7.50;6.97;;;;;;;-4.95;100.00;99077.31;4140622;28;20292;-51
2023/12/03 01:47:55;;;;;;;7.20;6.70;;;;;;;-4.94;100.00;99079.00;4141712;28;20251;-51
2023/12/03 01:50:06;;;;;;;6.13;5.83;;;;;;;-4.97;100.00;99073.09;4141971;28;20579;-50
2023/12/03 01:52:08;;;;;;;8.77;7.97;;;;;;;-4.95;100.00;99073.81;4160852;28;20212;-50
2023/12/03 01:54:10;;;;;;;5.03;4.80;;;;;;;-4.95;100.00;99079.13;4128790;28;20738;-50
2023/12/03 01:56:12;;;;;;;7.37;6.67;;;;;;;-4.91;100.00;99077.88;4142477;28;20225;-48
2023/12/03 01:58:14;;;;;;;5.87;5.47;;;;;;;-4.92;100.00;99084.22;4143318;28;20292;-49
2023/12/03 02:00:16;;;;;;;6.17;5.67;;;;;;;-4.88;100.00;99090.97;4140553;28;20213;-49
2023/12/03 02:02:18;;;;;;;5.73;5.33;;;;;;;-4.82;100.00;99093.03;4138640;28;20274;-50
2023/12/03 02:04:19;;;;;;;8.57;7.90;;;;;;;-4.81;100.00;99092.91;4126679;28;20213;-49
2023/12/03 02:06:21;;;;;;;5.53;5.33;;;;;;;-4.79;100.00;99098.94;4144702;28;20299;-48
2023/12/03 02:08:23;;;;;;;6.53;6.03;;;;;;;-4.65;100.00;99100.38;4152131;28;20221;-49
2023/12/03 02:10:25;;;;;;;7.43;6.93;;;;;;;-4.74;100.00;99098.56;4128195;28;20627;-50
2023/12/03 02:12:27;;;;;;;6.77;6.37;;;;;;;-4.68;100.00;99090.81;4153048;28;20729;-51
2023/12/03 02:14:29;;;;;;;6.27;5.87;;;;;;;-4.73;100.00;99089.56;4138544;28;20672;-50
2023/12/03 02:16:32;;;;;;;6.63;6.20;;;;;;;-4.71;100.00;99095.59;4134498;28;20226;-50
2023/12/03 02:18:36;;;;;;;5.33;5.03;;;;;;;-4.69;100.00;99093.59;4136670;28;20210;-49
2023/12/03 02:20:37;;;;;;;9.43;8.73;;;;;;;-4.63;100.00;99098.38;4127487;28;20230;-49
2023/12/03 02:22:59;;;;;;;7.63;7.13;;;;;;;-4.55;100.00;99103.84;4145432;28;20210;-52
2023/12/03 02:25:01;;;;;;;6.10;5.70;;;;;;;-4.56;100.00;99099.50;4143745;28;20654;-50
2023/12/03 02:27:03;;;;;;;6.13;5.60;;;;;;;-4.39;100.00;99104.13;4147077;28;20216;-51
2023/12/03 02:29:05;;;;;;;8.13;7.60;;;;;;;-4.44;100.00;99103.72;4146720;28;20205;-49
2023/12/03 02:31:06;;;;;;;7.40;7.00;;;;;;;-4.32;100.00;99097.25;4131035;28;20309;-50
2023/12/03 02:33:08;;;;;;;9.30;8.50;;;;;;;-4.38;100.00;99097.81;4130952;28;20206;-51
2023/12/03 02:35:10;;;;;;;8.10;7.50;;;;;;;-4.36;100.00;99096.69;4164275;28;20232;-50
2023/12/03 02:37:11;;;;;;;7.50;7.00;;;;;;;-4.18;100.00;99104.81;4144928;28;20335;-50
2023/12/03 02:39:13;;;;;;;8.73;8.00;;;;;;;-4.19;100.00;99098.59;4145543;28;20648;-50
2023/12/03 02:41:15;;;;;;;6.70;6.20;;;;;;;-4.20;100.00;99098.78;4141956;28;20201;-51
2023/12/03 02:43:17;;;;;;;6.73;6.20;;;;;;;-4.19;100.00;99098.59;4145325;28;20248;-49
2023/12/03 02:45:19;;;;;;;8.93;8.10;;;;;;;-4.06;100.00;99100.97;4143137;28;20349;-50
2023/12/03 02:47:20;;;;;;;9.57;7.00;;;;;;;-3.97;100.00;99103.63;4143876;28;20244;-50
2023/12/03 02:49:22;;;;;;;7.83;7.03;;;;;;;-3.99;100.00;99100.25;4140351;28;20264;-49
2023/12/03 02:51:24;;;;;;;7.33;6.73;;;;;;;-3.99;100.00;99099.41;4143509;28;20221;-50
2023/12/03 02:53:26;;;;;;;7.73;7.10;;;;;;;-3.98;100.00;99091.25;4143893;28;20210;-50
2023/12/03 02:55:27;;;;;;;7.60;7.10;;;;;;;-3.89;100.00;99103.75;4126747;28;20226;-49
2023/12/03 02:57:29;;;;;;;8.30;7.63;;;;;;;-3.91;100.00;99096.84;4142489;28;20212;-49
2023/12/03 02:59:31;;;;;;;14.37;9.00;;;;;;;-3.84;100.00;99103.28;4140175;28;20659;-50
2023/12/03 03:01:33;;;;;;;9.43;7.90;;;;;;;-3.82;100.00;99095.97;4138554;28;20638;-48
2023/12/03 03:03:35;;;;;;;13.13;10.73;;;;;;;-3.76;100.00;99090.91;4140317;28;20228;-50
2023/12/03 03:05:37;;;;;;;9.03;8.07;;;;;;;-3.77;100.00;99097.22;4146053;28;20237;-49
2023/12/03 03:07:39;;;;;;;10.07;9.17;;;;;;;-3.82;100.00;99090.63;4128859;28;20240;-50
2023/12/03 03:09:40;;;;;;;9.27;8.57;;;;;;;-3.78;100.00;99098.22;4159526;28;20244;-50
2023/12/03 03:11:42;;;;;;;10.13;9.33;;;;;;;-3.65;100.00;99100.56;4141851;28;20373;-49
2023/12/03 03:13:44;;;;;;;10.00;9.23;;;;;;;-3.59;100.00;99105.31;4144900;28;20205;-49
2023/12/03 03:15:45;;;;;;;8.23;7.43;;;;;;;-3.59;100.00;99106.19;4150972;28;20614;-49
2023/12/03 03:17:47;;;;;;;9.37;7.67;;;;;;;-3.52;100.00;99109.09;4140921;28;21187;-49
2023/12/03 03:19:49;;;;;;;9.47;8.57;;;;;;;-3.43;100.00;99113.53;4144126;28;20239;-48
2023/12/03 03:21:51;;;;;;;8.50;7.90;;;;;;;-3.51;100.00;99110.75;4141792;28;20306;-48
2023/12/03 03:23:52;;;;;;;11.67;10.70;;;;;;;-3.50;100.00;99115.97;4124432;28;20687;-50
2023/12/03 03:25:54;;;;;;;10.47;9.50;;;;;;;-3.38;100.00;99111.28;4140564;28;20233;-49
2023/12/03 03:27:56;;;;;;;9.80;8.93;;;;;;;-3.48;100.00;99108.63;4144373;28;20255;-50
2023/12/03 03:29:57;;;;;;;13.03;11.93;;;;;;;-3.46;100.00;99103.97;4142523;28;20821;-49
2023/12/03 03:31:59;;;;;;;11.50;10.20;;;;;;;-3.48;100.00;99107.81;4141809;28;20770;-50
2023/12/03 03:34:01;;;;;;;18.37;9.33;;;;;;;-3.37;100.00;99112.94;4143452;28;20284;-51
2023/12/03 03:36:03;;;;;;;8.97;8.30;;;;;;;-3.42;100.00;99110.72;4144944;28;20237;-49
2023/12/03 03:38:05;;;;;;;11.67;10.60;;;;;;;-3.37;100.00;99110.28;4138816;28;20214;-48
2023/12/03 03:40:07;;;;;;;9.70;9.13;;;;;;;-3.47;100.00;99112.16;4143680;28;20610;-49
2023/12/03 03:42:09;;;;;;;13.17;10.50;;;;;;;-3.42;100.00;99112.53;4137658;28;20219;-49
2023/12/03 03:44:10;;;;;;;10.00;8.53;;;;;;;-3.44;100.00;99111.84;4123738;28;20297;-49
2023/12/03 03:46:12;;;;;;;9.60;8.43;;;;;;;-3.36;100.00;99117.31;4139627;28;20267;-50
2023/12/03 03:48:14;;;;;;;6.87;6.27;;;;;;;-3.38;100.00;99116.63;4139236;28;20217;-49
2023/12/03 03:50:16;;;;;;;9.37;8.67;;;;;;;-3.31;100.00;99128.41;4148553;28;20208;-50
2023/12/03 03:52:17;;;;;;;11.40;9.97;;;;;;;-3.34;100.00;99131.38;4136342;28;20726;-49
2023/12/03 03:54:19;;;;;;;10.70;9.80;;;;;;;-3.40;100.00;99123.97;4143548;28;20229;-50
2023/12/03 03:56:22;;;;;;;9.43;8.70;;;;;;;-3.40;100.00;99127.44;4127689;28;20316;-49
2023/12/03 03:58:24;;;;;;;10.37;9.63;;;;;;;-3.35;100.00;99133.22;4142755;28;20201;-51
2023/12/03 04:00:26;;;;;;;11.27;10.17;;;;;;;-3.29;100.00;99142.47;4142938;28;20216;-50
2023/12/03 04:02:28;;;;;;;10.70;8.97;;;;;;;-3.26;100.00;99142.19;4125834;28;20678;-50
2023/12/03 04:04:30;;;;;;;9.97;9.37;;;;;;;-3.24;100.00;99133.03;4142001;28;20197;-51
2023/12/03 04:06:41;;;;;;;10.03;9.23;;;;;;;-3.29;100.00;99137.13;4160192;28;20242;-49
2023/12/03 04:08:43;;;;;;;9.33;8.43;;;;;;;-3.21;100.00;99142.59;4127901;28;20233;-50
2023/12/03 04:10:44;;;;;;;7.47;6.87;;;;;;;-3.13;100.00;99135.47;4141289;28;20213;-50
2023/12/03 04:12:47;;;;;;;11.73;10.33;;;;;;;-3.19;100.00;99137.94;4143682;28;20209;-50
2023/12/03 04:14:49;;;;;;;10.07;8.33;;;;;;;-3.12;100.00;99139.00;4136425;28;20275;-48
2023/12/03 04:16:51;;;;;;;10.07;9.13;;;;;;;-3.14;100.00;99141.00;4143683;28;20287;-48
2023/12/03 04:18:52;;;;;;;9.43;8.63;;;;;;;-3.06;100.00;99144.59;4143470;28;20217;-48
2023/12/03 04:20:57;;;;;;;8.13;7.47;;;;;;;-2.98;100.00;99143.84;4144219;28;20464;-49
2023/12/03 04:22:59;;;;;;;7.40;6.83;;;;;;;-2.97;100.00;99148.22;4136141;28;20213;-48
2023/12/03 04:25:01;;;;;;;11.20;9.87;;;;;;;-2.99;100.00;99151.06;4140496;28;20208;-48
2023/12/03 04:27:03;;;;;;;10.37;9.30;;;;;;;-2.91;100.00;99144.94;4126433;28;20213;-50
2023/12/03 04:29:05;;;;;;;11.87;10.67;;;;;;;-2.89;100.00;99150.97;4145503;28;20244;-48
2023/12/03 04:31:16;;;;;;;9.73;8.93;;;;;;;-2.95;100.00;99149.75;4140366;28;20202;-49
2023/12/03 04:33:18;;;;;;;8.20;7.00;;;;;;;-2.93;100.00;99153.09;4142622;28;20575;-48
2023/12/03 04:35:19;;;;;;;9.50;8.63;;;;;;;-2.93;100.00;99145.06;4141073;28;20229;-48
2023/12/03 04:37:21;;;;;;;12.03;10.13;;;;;;;-2.92;100.00;99146.78;4147178;28;20248;-48
2023/12/03 04:39:23;;;;;;;8.97;6.87;;;;;;;-2.92;100.00;99141.44;4142238;28;20214;-51
2023/12/03 04:41:36;;;;;;;11.50;10.20;;;;;;;-2.92;100.00;99151.28;4141012;28;20275;-47
2023/12/03 04:43:38;;;;;;;8.87;8.13;;;;;;;-2.86;100.00;99156.03;4143019;28;22630;-50
2023/12/03 04:45:39;;;;;;;8.53;7.83;;;;;;;-2.87;100.00;99149.00;4137516;28;20221;-50
2023/12/03 04:47:41;;;;;;;12.07;9.20;;;;;;;-2.78;100.00;99156.13;4141357;28;20225;-50
2023/12/03 04:49:44;;;;;;;13.03;8.77;;;;;;;-2.81;100.00;99154.59;4127380;28;20288;-50
2023/12/03 04:51:46;;;;;;;9.20;8.30;;;;;;;-2.73;100.00;99172.59;4143417;28;20932;-48
2023/12/03 04:53:47;;;;;;;8.80;8.20;;;;;;;-2.68;100.00;99165.78;4145024;28;20228;-48
2023/12/03 04:55:49;;;;;;;8.57;7.87;;;;;;;-2.61;100.00;99166.03;4144260;28;20735;-47
2023/12/03 04:57:51;;;;;;;9.73;8.83;;;;;;;-2.72;100.00;99163.56;4144513;28;20263;-50
2023/12/03 04:59:53;;;;;;;9.90;8.03;;;;;;;-2.69;100.00;99157.88;4139456;28;20260;-47
2023/12/03 05:01:54;;;;;;;9.00;8.30;;;;;;;-2.63;100.00;99162.63;4123234;28;20257;-50
2023/12/03 05:03:56;;;;;;;8.60;7.30;;;;;;;-2.66;100.00;99162.94;4143933;28;20288;-52
2023/12/03 05:05:58;;;;;;;8.17;7.30;;;;;;;-2.70;100.00;99161.56;4123709;28;20265;-50
2023/12/03 05:07:59;;;;;;;7.50;6.93;;;;;;;-2.65;100.00;99160.13;4143267;28;20737;-48
2023/12/03 05:10:01;;;;;;;8.40;7.80;;;;;;;-2.61;100.00;99155.31;4140610;28;20205;-49
2023/12/03 05:12:03;;;;;;;6.90;6.40;;;;;;;-2.62;100.00;99153.63;4139846;28;20214;-49
2023/12/03 05:14:05;;;;;;;8.47;7.63;;;;;;;-2.64;100.00;99155.59;4125000;28;20215;-50
2023/12/03 05:16:08;;;;;;;17.57;6.23;;;;;;;-2.63;100.00;99163.50;4123103;28;20293;-49
2023/12/03 05:18:10;;;;;;;10.10;9.03;;;;;;;-2.60;100.00;99151.63;4142637;28;20252;-49
2023/12/03 05:20:12;;;;;;;6.90;6.40;;;;;;;-2.68;100.00;99155.06;4141215;28;20216;-49
2023/12/03 05:22:14;;;;;;;8.67;7.97;;;;;;;-2.63;100.00;99157.28;4142024;28;20583;-50
2023/12/03 05:24:15;;;;;;;8.53;6.73;;;;;;;-2.68;100.00;99155.06;4141231;28;20217;-50
2023/12/03 05:26:17;;;;;;;8.17;7.37;;;;;;;-2.68;100.00;99155.06;4139018;28;20734;-51
2023/12/03 05:28:19;;;;;;;8.30;7.43;;;;;;;-2.65;100.00;99157.44;4146189;28;20263;-50
2023/12/03 05:30:21;;;;;;;8.97;8.27;;;;;;;-2.65;100.00;99154.78;4128825;28;20223;-50
2023/12/03 05:32:22;;;;;;;8.73;7.03;;;;;;;-2.64;100.00;99160.97;4146574;28;20224;-51
2023/12/03 05:34:24;;;;;;;11.57;7.73;;;;;;;-2.66;100.00;99168.31;4148692;28;20314;-50
2023/12/03 05:36:26;;;;;;;8.33;7.63;;;;;;;-2.76;100.00;99167.50;4145737;28;20578;-49
2023/12/03 05:38:28;;;;;;;7.63;7.17;;;;;;;-2.60;100.00;99163.16;4137870;28;20292;-48
2023/12/03 05:40:30;;;;;;;15.13;7.43;;;;;;;-2.68;100.00;99168.44;4122282;28;20210;-49
2023/12/03 05:42:32;;;;;;;9.73;8.77;;;;;;;-2.62;100.00;99164.34;4138411;28;20209;-49
2023/12/03 05:44:33;;;;;;;9.00;8.13;;;;;;;-2.56;100.00;99174.41;4143677;28;20230;-49
2023/12/03 05:46:41;;;;;;;6.17;5.47;;;;;;;-2.57;100.00;99170.06;4140884;28;20225;-50
2023/12/03 05:48:43;;;;;;;12.37;6.83;;;;;;;-2.58;100.00;99165.72;4114690;28;20305;-49
2023/12/03 05:50:45;;;;;;;6.57;6.03;;;;;;;-2.55;100.00;99170.78;4136306;28;20214;-49
2023/12/03 05:52:47;;;;;;;6.30;5.77;;;;;;;-2.59;100.00;99169.38;4120458;28;20198;-49
2023/12/03 05:54:48;;;;;;;7.27;6.77;;;;;;;-2.52;100.00;99175.81;4142380;28;21989;-49
2023/12/03 05:56:50;;;;;;;9.77;8.70;;;;;;;-2.52;100.00;99178.50;4125570;28;20213;-49
2023/12/03 05:58:52;;;;;;;9.03;8.43;;;;;;;-2.60;100.00;99179.25;4140599;28;20209;-49
2023/12/03 06:00:54;;;;;;;12.70;6.97;;;;;;;-2.49;100.00;99180.84;4157891;28;20236;-49
2023/12/03 06:02:59;;;;;;;8.70;7.90;;;;;;;-2.51;100.00;99189.06;4132878;28;20663;-51
2023/12/03 06:05:02;;;;;;;7.67;6.93;;;;;;;-2.58;100.00;99187.13;4125491;28;20288;-50
2023/12/03 06:07:04;;;;;;;10.17;9.00;;;;;;;-2.41;100.00;99183.63;4139173;28;20263;-49
2023/12/03 06:09:07;;;;;;;7.87;7.27;;;;;;;-2.55;100.00;99182.31;4137466;28;20217;-50
2023/12/03 06:11:08;;;;;;;7.30;6.70;;;;;;;-2.55;100.00;99192.19;4141112;28;20225;-50
2023/12/03 06:13:10;;;;;;;10.17;9.40;;;;;;;-2.43;100.00;99190.97;4142076;28;20221;-49
2023/12/03 06:15:12;;;;;;;12.83;11.00;;;;;;;-2.45;100.00;99195.63;4123771;28;20304;-49
2023/12/03 06:17:14;;;;;;;8.70;7.80;;;;;;;-2.56;100.00;99194.03;4144500;28;20583;-49
2023/12/03 06:19:17;;;;;;;7.57;6.80;;;;;;;-2.57;100.00;99191.50;4140820;28;20213;-49
2023/12/03 06:21:18;;;;;;;10.33;9.33;;;;;;;-2.57;100.00;99195.03;4141714;28;20300;-50
2023/12/03 06:23:20;;;;;;;7.27;6.83;;;;;;;-2.50;100.00;99196.09;4144672;28;20308;-49
2023/12/03 06:25:22;;;;;;;8.53;7.73;;;;;;;-2.55;100.00;99197.56;4144573;28;20284;-49
2023/12/03 06:27:23;;;;;;;10.17;9.17;;;;;;;-2.50;100.00;99190.75;4142120;28;20214;-49
2023/12/03 06:29:25;;;;;;;8.87;6.37;;;;;;;-2.48;100.00;99182.56;4142394;28;20217;-49
2023/12/03 06:31:28;;;;;;;8.43;7.73;;;;;;;-2.50;100.00;99189.88;4139534;28;20208;-49
2023/12/03 06:33:29;;;;;;;9.63;8.73;;;;;;;-2.55;100.00;99185.00;4141334;28;20256;-50
2023/12/03 06:38:54;;;;;;;6.47;5.93;;;;;;;-2.54;100.00;99177.81;4140574;28;20272;-49
2023/12/03 06:40:55;;;;;;;9.33;8.53;;;;;;;-2.62;100.00;99175.06;4139070;28;20871;-50
2023/12/03 06:42:57;;;;;;;10.77;10.03;;;;;;;-2.59;100.00;99180.09;4147208;28;20267;-48
2023/12/03 06:44:59;;;;;;;13.43;9.60;;;;;;;-2.59;100.00;99175.59;4141940;28;20721;-49
2023/12/03 06:47:00;;;;;;;7.27;6.73;;;;;;;-2.57;100.00;99178.09;4143076;28;20309;-50
2023/12/03 06:49:02;;;;;;;9.03;8.33;;;;;;;-2.57;100.00;99178.09;4128658;28;20644;-49
2023/12/03 06:51:04;;;;;;;10.10;8.33;;;;;;;-2.59;100.00;99185.44;4147055;28;20282;-50
2023/12/03 06:53:06;;;;;;;14.07;7.73;;;;;;;-2.56;100.00;99185.13;4145210;28;20210;-49
2023/12/03 06:55:08;;;;;;;12.70;7.53;;;;;;;-2.59;100.00;99186.31;4145775;28;20684;-50
2023/12/03 06:57:09;;;;;;;8.43;7.60;;;;;;;-2.58;100.00;99195.16;4145918;28;20221;-49
2023/12/03 06:59:11;;;;;;;10.50;7.57;;;;;;;-2.55;100.00;99197.56;4145664;28;20205;-49
2023/12/03 07:01:13;;;;;;;8.63;7.77;;;;;;;-2.69;100.00;99195.38;4130014;28;20218;-50
2023/12/03 07:03:15;;;;;;;9.10;8.30;;;;;;;-2.66;100.00;99190.56;4142095;28;20707;-49
2023/12/03 07:05:17;;;;;;;7.97;7.47;;;;;;;-2.64;100.00;99198.44;4141134;28;20237;-49
2023/12/03 07:07:20;;;;;;;10.10;9.27;;;;;;;-2.52;100.00;99202.59;4150015;28;20217;-50
2023/12/03 07:09:22;;;;;;;13.03;9.10;;;;;;;-2.54;100.00;99199.25;4145232;28;20213;-49
2023/12/03 07:11:40;;;;;;;6.07;5.67;;;;;;;-2.64;100.00;99198.44;4144720;28;20292;-49
2023/12/03 07:13:42;;;;;;;9.30;8.50;;;;;;;-2.70;100.00;99204.41;4142028;28;20209;-49
2023/12/03 07:15:44;;;;;;;8.57;8.07;;;;;;;-2.68;100.00;99202.44;4141865;28;20233;-50
2023/12/03 07:17:46;;;;;;;8.17;7.33;;;;;;;-2.68;100.00;99205.13;4131995;28;20206;-49
2023/12/03 07:19:48;;;;;;;12.40;7.30;;;;;;;-2.73;100.00;99210.91;4156206;28;20295;-49
2023/12/03 07:21:49;;;;;;;10.57;9.73;;;;;;;-2.63;100.00;99216.19;4139430;28;20570;-48
2023/12/03 07:23:51;;;;;;;11.37;9.87;;;;;;;-2.75;100.00;99214.75;4124025;28;20734;-49
2023/12/03 07:25:53;;;;;;;8.77;8.07;;;;;;;-2.67;100.00;99220.19;4142752;28;20778;-49
2023/12/03 07:27:55;;;;;;;7.27;6.77;;;;;;;-2.76;100.00;99237.13;4141935;28;20248;-50
2023/12/03 07:29:57;;;;;;;8.17;7.43;;;;;;;-2.63;100.00;99240.28;4143707;28;20308;-52
2023/12/03 07:31:59;;;;;;;7.93;7.17;;;;;;;-2.66;100.00;99256.69;4143570;28;20216;-51
2023/12/03 07:34:01;;;;;;;8.20;7.60;;;;;;;-2.71;100.00;99262.47;4136274;28;20216;-48
2023/12/03 07:36:03;;;;;;;10.87;9.80;;;;;;;-2.62;100.00;99260.75;4140077;28;20261;-49
2023/12/03 07:38:05;;;;;;;7.53;6.97;;;;;;;-2.59;100.00;99261.31;4145053;28;20209;-47
2023/12/03 07:40:09;;;;;;;9.77;8.53;;;;;;;-2.73;100.00;99267.13;4141501;28;20655;-48
2023/12/03 07:42:10;;;;;;;12.63;7.37;;;;;;;-2.62;100.00;99268.78;4145637;28;20263;-47
2023/12/03 07:44:12;;;;;;;9.63;8.77;;;;;;;-2.67;100.00;99271.06;4144959;28;20208;-47
2023/12/03 07:46:17;;;;;;;9.43;8.60;;;;;;;-2.72;100.00;99270.66;4140129;28;20229;-48
2023/12/03 07:48:19;;;;;;;7.17;5.77;;;;;;;-2.69;100.00;99267.66;4141876;28;20698;-49
2023/12/03 07:50:21;;;;;;;8.73;7.80;;;;;;;-2.76;100.00;99275.47;4129053;28;20494;-51
2023/12/03 07:52:23;;;;;;;10.73;9.73;;;;;;;-2.61;100.00;99265.13;4138460;28;20205;-48
2023/12/03 07:54:24;;;;;;;6.47;5.87;;;;;;;-2.77;100.00;99273.78;4126349;28;20627;-48
2023/12/03 07:56:36;;;;;;;9.17;6.73;;;;;;;-2.69;100.00;99273.03;4141963;28;20233;-49
2023/12/03 07:58:38;;;;;;;10.73;9.70;;;;;;;-2.56;100.00;99278.88;4142542;28;20204;-48
2023/12/03 08:00:40;;;;;;;9.17;6.67;;;;;;;-2.69;100.00;99271.19;4122335;28;20280;-48
2023/12/03 08:02:42;;;;;;;6.60;5.97;;;;;;;-2.69;100.00;99265.00;4142818;28;20307;-49
2023/12/03 08:04:43;;;;;;;9.00;8.07;;;;;;;-2.75;100.00;99266.44;4145961;28;20217;-49
2023/12/03 08:06:49;;;;;;;7.23;6.63;;;;;;;-2.63;100.00;99264.41;4121529;28;21292;-47
2023/12/03 08:08:52;;;;;;;7.90;7.20;;;;;;;-2.68;100.00;99267.53;4141603;28;20268;-49
2023/12/03 08:10:54;;;;;;;25.17;6.13;;;;;;;-2.71;100.00;99266.97;4145527;28;20622;-51
2023/12/03 08:12:55;;;;;;;7.70;7.07;;;;;;;-2.67;100.00;99260.34;4142846;28;20577;-50
2023/12/03 08:14:57;;;;;;;6.37;5.87;;;;;;;-2.43;100.00;99255.25;4129505;28;20233;-50
2023/12/03 08:16:59;;;;;;;9.57;7.20;;;;;;;-1.91;100.00;99262.50;4142911;28;20228;-50
2023/12/03 08:19:00;;;;;;;9.50;8.70;;;;;;;-1.40;100.00;99258.06;4142578;28;20281;-51
2023/12/03 08:21:02;;;;;;;5.70;5.20;;;;;;;-1.32;99.02;99260.81;4140098;28;20206;-50
2023/12/03 08:23:05;;;;;;;6.03;5.57;;;;;;;-1.18;97.58;99254.88;4142270;28;20217;-50
2023/12/03 08:25:07;;;;;;;7.93;6.30;;;;;;;-0.95;96.10;99257.84;4145168;28;20287;-50
2023/12/03 08:27:13;;;;;;;5.90;5.40;;;;;;;-0.84;96.77;99255.72;4142904;28;20729;-50
2023/12/03 08:29:14;;;;;;;7.90;7.33;;;;;;;-1.04;96.86;99258.78;4143831;28;20217;-49
2023/12/03 08:31:16;;;;;;;8.97;5.13;;;;;;;-1.45;96.18;99264.91;4139418;28;20209;-51
2023/12/03 08:33:18;;;;;;;11.03;4.23;;;;;;;-1.49;98.32;99259.00;4140813;28;20225;-50
2023/12/03 08:35:20;;;;;;;7.07;6.63;;;;;;;-1.67;98.43;99254.66;4143052;28;20567;-49
2023/12/03 08:37:22;;;;;;;7.30;6.63;;;;;;;-1.74;100.00;99248.25;4142111;28;20651;-49
2023/12/03 08:39:23;;;;;;;7.03;6.47;;;;;;;-1.89;100.00;99255.16;4138745;28;20213;-50
2023/12/03 08:41:25;;;;;;;6.73;6.23;;;;;;;-1.79;100.00;99256.75;4140726;28;20213;-50
2023/12/03 08:43:28;;;;;;;5.80;5.40;;;;;;;-1.92;100.00;99260.81;4143463;28;20737;-50
2023/12/03 08:45:30;;;;;;;7.93;7.13;;;;;;;-1.80;100.00;99268.47;4139637;28;22237;-51
2023/12/03 08:47:32;;;;;;;6.20;5.70;;;;;;;-1.66;99.70;99269.75;4141745;28;20744;-49
2023/12/03 08:49:33;;;;;;;7.23;5.57;;;;;;;-1.67;99.74;99270.75;4110509;28;20679;-50
2023/12/03 08:51:38;;;;;;;15.87;7.13;;;;;;;-1.65;99.11;99274.13;4141446;28;20306;-49
2023/12/03 08:53:40;;;;;;;7.57;5.33;;;;;;;-1.57;99.12;99272.38;4124223;28;20222;-49
2023/12/03 08:55:41;;;;;;;6.10;5.00;;;;;;;-1.74;98.30;99269.69;4127471;28;20642;-48
2023/12/03 08:57:43;;;;;;;7.50;5.77;;;;;;;-1.80;98.80;99273.00;4139684;28;20221;-49
2023/12/03 08:59:46;;;;;;;8.37;7.67;;;;;;;-1.68;98.74;99272.59;4140185;28;20644;-49
2023/12/03 09:01:48;;;;;;;6.57;6.03;;;;;;;-1.75;98.14;99278.75;4137609;28;20213;-50
2023/12/03 09:03:50;;;;;;;6.93;6.33;;;;;;;-1.71;98.49;99278.28;4137945;28;20213;-49
2023/12/03 09:05:52;;;;;;;8.33;7.47;;;;;;;-1.82;97.21;99283.03;4134157;28;20317;-47
2023/12/03 09:07:54;;;;;;;9.23;8.53;;;;;;;-1.71;96.58;99280.09;4122292;28;20210;-51
2023/12/03 09:09:55;;;;;;;6.57;6.17;;;;;;;-1.78;96.70;99274.53;4138797;28;20668;-49
2023/12/03 09:11:57;;;;;;;7.77;6.30;;;;;;;-1.74;96.12;99275.06;4144121;28;20226;-49
2023/12/03 09:13:59;;;;;;;8.10;7.37;;;;;;;-1.78;95.95;99281.72;4144827;28;20258;-50
2023/12/03 09:16:00;;;;;;;7.70;6.20;;;;;;;-1.81;95.78;99280.19;4145165;28;20580;-49
2023/12/03 09:18:02;;;;;;;6.13;5.63;;;;;;;-1.79;95.38;99277.38;4144951;28;20583;-49
2023/12/03 09:20:05;;;;;;;8.33;7.73;;;;;;;-1.71;95.09;99274.75;4145735;28;20228;-50
2023/12/03 09:22:07;;;;;;;9.40;6.13;;;;;;;-1.71;95.64;99282.78;4141236;28;20256;-48
2023/12/03 09:24:09;;;;;;;7.00;6.53;;;;;;;-1.64;95.24;99273.13;4139770;28;20277;-49
2023/12/03 09:26:16;;;;;;;12.83;11.60;;;;;;;-1.70;94.89;99266.56;4139539;28;20642;-50
2023/12/03 09:28:17;;;;;;;7.13;6.63;;;;;;;-1.68;94.47;99269.09;4127985;28;20675;-49
2023/12/03 09:30:19;;;;;;;7.83;7.23;;;;;;;-1.65;93.87;99271.44;4142055;28;20213;-50
2023/12/03 09:32:21;;;;;;;9.57;8.63;;;;;;;-1.63;93.53;99272.13;4141376;28;20211;-51